Terminal Aerodrome Forecast
Issued by NWS Mt. Holly, NJ

Home | Current Version | Previous Version | Text Only | Print | Product List | Glossary On
Versions: 1 2 3 4 5 6 7 8 9 10 11 12 13 14 15 16 17 18 19 20 21 22
000
FTUS41 KPHI 191700 RRA
TAFPHL
TAF
KPHL 191745Z 1918/2024 11008KT P6SM BKN035
     FM191900 11009KT P6SM SCT035 SCT050
     FM200600 12005KT P6SM OVC025
     FM201100 13005KT P6SM OVC015
     FM201500 16007KT P6SM OVC025
     FM201700 19011KT P6SM BKN035=

USA.gov is the U.S. government's official web portal to all federal, state and local government web resources and services.